sensor_id;sensor_type;location;lat;lon;timestamp;P1;durP1;ratioP1;P2;durP2;ratioP2
6334;SDS011;3200;48.204;11.576;2024-02-04T00:01:40;4.38;;;3.42;;
6334;SDS011;3200;48.204;11.576;2024-02-04T00:04:06;6.40;;;4.40;;
6334;SDS011;3200;48.204;11.576;2024-02-04T00:06:32;5.07;;;4.40;;
6334;SDS011;3200;48.204;11.576;2024-02-04T00:08:58;4.40;;;4.00;;
6334;SDS011;3200;48.204;11.576;2024-02-04T00:11:24;4.03;;;3.60;;
6334;SDS011;3200;48.204;11.576;2024-02-04T00:13:50;4.85;;;3.45;;
6334;SDS011;3200;48.204;11.576;2024-02-04T00:16:17;6.25;;;4.60;;
6334;SDS011;3200;48.204;11.576;2024-02-04T00:18:43;5.23;;;4.40;;
6334;SDS011;3200;48.204;11.576;2024-02-04T00:21:08;5.90;;;4.78;;
6334;SDS011;3200;48.204;11.576;2024-02-04T00:23:34;7.45;;;4.63;;
6334;SDS011;3200;48.204;11.576;2024-02-04T00:26:00;5.33;;;4.80;;
6334;SDS011;3200;48.204;11.576;2024-02-04T00:28:26;6.90;;;4.77;;
6334;SDS011;3200;48.204;11.576;2024-02-04T00:30:55;5.97;;;4.90;;
6334;SDS011;3200;48.204;11.576;2024-02-04T00:33:22;7.70;;;6.15;;
6334;SDS011;3200;48.204;11.576;2024-02-04T00:35:48;6.60;;;5.10;;
6334;SDS011;3200;48.204;11.576;2024-02-04T00:38:15;7.28;;;5.57;;
6334;SDS011;3200;48.204;11.576;2024-02-04T00:40:41;6.57;;;4.93;;
6334;SDS011;3200;48.204;11.576;2024-02-04T00:43:06;7.50;;;5.73;;
6334;SDS011;3200;48.204;11.576;2024-02-04T00:45:32;5.70;;;4.63;;
6334;SDS011;3200;48.204;11.576;2024-02-04T00:47:58;6.13;;;5.07;;
6334;SDS011;3200;48.204;11.576;2024-02-04T00:50:24;6.93;;;6.07;;
6334;SDS011;3200;48.204;11.576;2024-02-04T00:52:50;6.63;;;5.63;;
6334;SDS011;3200;48.204;11.576;2024-02-04T00:55:18;7.00;;;5.40;;
6334;SDS011;3200;48.204;11.576;2024-02-04T00:57:44;8.25;;;5.35;;
6334;SDS011;3200;48.204;11.576;2024-02-04T01:00:11;8.30;;;6.17;;
6334;SDS011;3200;48.204;11.576;2024-02-04T01:02:39;7.53;;;5.57;;
6334;SDS011;3200;48.204;11.576;2024-02-04T01:05:05;6.20;;;5.43;;
6334;SDS011;3200;48.204;11.576;2024-02-04T01:07:32;6.18;;;5.57;;
6334;SDS011;3200;48.204;11.576;2024-02-04T01:09:58;6.40;;;5.33;;
6334;SDS011;3200;48.204;11.576;2024-02-04T01:12:24;6.23;;;5.10;;
6334;SDS011;3200;48.204;11.576;2024-02-04T01:14:49;8.27;;;5.50;;
6334;SDS011;3200;48.204;11.576;2024-02-04T01:17:15;6.23;;;5.20;;
6334;SDS011;3200;48.204;11.576;2024-02-04T01:19:41;6.37;;;5.10;;
6334;SDS011;3200;48.204;11.576;2024-02-04T01:22:07;6.20;;;5.50;;
6334;SDS011;3200;48.204;11.576;2024-02-04T01:24:32;6.93;;;5.40;;
6334;SDS011;3200;48.204;11.576;2024-02-04T01:26:58;6.10;;;5.10;;
6334;SDS011;3200;48.204;11.576;2024-02-04T01:29:24;7.50;;;5.63;;
6334;SDS011;3200;48.204;11.576;2024-02-04T01:31:50;6.43;;;5.67;;
6334;SDS011;3200;48.204;11.576;2024-02-04T01:34:16;8.02;;;5.40;;
6334;SDS011;3200;48.204;11.576;2024-02-04T01:36:42;6.30;;;5.63;;
6334;SDS011;3200;48.204;11.576;2024-02-04T01:39:08;7.00;;;6.07;;
6334;SDS011;3200;48.204;11.576;2024-02-04T01:41:35;7.78;;;6.30;;
6334;SDS011;3200;48.204;11.576;2024-02-04T01:44:01;16.27;;;8.70;;
6334;SDS011;3200;48.204;11.576;2024-02-04T01:46:27;7.93;;;6.72;;
6334;SDS011;3200;48.204;11.576;2024-02-04T01:48:54;7.97;;;6.55;;
6334;SDS011;3200;48.204;11.576;2024-02-04T01:51:23;7.22;;;6.50;;
6334;SDS011;3200;48.204;11.576;2024-02-04T01:53:50;7.50;;;6.32;;
6334;SDS011;3200;48.204;11.576;2024-02-04T01:56:16;7.45;;;6.35;;
6334;SDS011;3200;48.204;11.576;2024-02-04T01:58:43;8.05;;;6.40;;
6334;SDS011;3200;48.204;11.576;2024-02-04T02:01:10;8.40;;;5.90;;
6334;SDS011;3200;48.204;11.576;2024-02-04T02:03:36;7.15;;;5.90;;
6334;SDS011;3200;48.204;11.576;2024-02-04T02:06:07;8.02;;;6.82;;
6334;SDS011;3200;48.204;11.576;2024-02-04T02:08:33;8.60;;;6.93;;
6334;SDS011;3200;48.204;11.576;2024-02-04T02:11:05;8.00;;;6.50;;
6334;SDS011;3200;48.204;11.576;2024-02-04T02:13:44;7.78;;;5.82;;
6334;SDS011;3200;48.204;11.576;2024-02-04T02:16:23;7.20;;;6.05;;
6334;SDS011;3200;48.204;11.576;2024-02-04T02:18:55;7.57;;;6.10;;
6334;SDS011;3200;48.204;11.576;2024-02-04T02:22:04;12.27;;;5.55;;
6334;SDS011;3200;48.204;11.576;2024-02-04T02:24:57;8.10;;;6.40;;
6334;SDS011;3200;48.204;11.576;2024-02-04T02:27:25;9.48;;;6.88;;
6334;SDS011;3200;48.204;11.576;2024-02-04T02:29:51;7.25;;;5.68;;
6334;SDS011;3200;48.204;11.576;2024-02-04T02:32:17;6.60;;;5.50;;
6334;SDS011;3200;48.204;11.576;2024-02-04T02:34:44;6.55;;;5.80;;
6334;SDS011;3200;48.204;11.576;2024-02-04T02:37:16;8.25;;;6.10;;
6334;SDS011;3200;48.204;11.576;2024-02-04T02:42:43;8.25;;;7.05;;
6334;SDS011;3200;48.204;11.576;2024-02-04T02:45:15;7.72;;;6.20;;
6334;SDS011;3200;48.204;11.576;2024-02-04T02:47:44;7.65;;;6.35;;
6334;SDS011;3200;48.204;11.576;2024-02-04T02:50:12;7.82;;;6.32;;
6334;SDS011;3200;48.204;11.576;2024-02-04T02:52:39;8.38;;;6.82;;
6334;SDS011;3200;48.204;11.576;2024-02-04T02:55:05;12.60;;;7.47;;
6334;SDS011;3200;48.204;11.576;2024-02-04T02:57:31;7.55;;;6.18;;
6334;SDS011;3200;48.204;11.576;2024-02-04T02:59:57;6.30;;;5.47;;
6334;SDS011;3200;48.204;11.576;2024-02-04T03:02:23;7.17;;;5.43;;
6334;SDS011;3200;48.204;11.576;2024-02-04T03:04:48;6.13;;;5.10;;
6334;SDS011;3200;48.204;11.576;2024-02-04T03:07:14;6.47;;;5.70;;
6334;SDS011;3200;48.204;11.576;2024-02-04T03:09:40;8.10;;;5.70;;
6334;SDS011;3200;48.204;11.576;2024-02-04T03:12:06;7.95;;;6.10;;
6334;SDS011;3200;48.204;11.576;2024-02-04T03:14:37;7.60;;;5.82;;
6334;SDS011;3200;48.204;11.576;2024-02-04T03:17:03;8.00;;;6.10;;
6334;SDS011;3200;48.204;11.576;2024-02-04T03:19:29;7.75;;;5.70;;
6334;SDS011;3200;48.204;11.576;2024-02-04T03:21:55;6.57;;;5.37;;
6334;SDS011;3200;48.204;11.576;2024-02-04T03:24:21;5.50;;;4.70;;
6334;SDS011;3200;48.204;11.576;2024-02-04T03:26:47;7.43;;;5.80;;
6334;SDS011;3200;48.204;11.576;2024-02-04T03:29:13;7.47;;;5.63;;
6334;SDS011;3200;48.204;11.576;2024-02-04T03:31:38;9.97;;;5.70;;
6334;SDS011;3200;48.204;11.576;2024-02-04T03:34:04;6.77;;;5.10;;
6334;SDS011;3200;48.204;11.576;2024-02-04T03:36:30;6.50;;;4.80;;
6334;SDS011;3200;48.204;11.576;2024-02-04T03:38:56;4.80;;;4.30;;
6334;SDS011;3200;48.204;11.576;2024-02-04T03:41:22;6.80;;;4.68;;
6334;SDS011;3200;48.204;11.576;2024-02-04T03:43:48;6.17;;;5.00;;
6334;SDS011;3200;48.204;11.576;2024-02-04T03:46:14;5.03;;;3.80;;
6334;SDS011;3200;48.204;11.576;2024-02-04T03:48:41;5.80;;;3.75;;
6334;SDS011;3200;48.204;11.576;2024-02-04T03:51:08;4.82;;;4.07;;
6334;SDS011;3200;48.204;11.576;2024-02-04T03:53:39;4.55;;;4.00;;
6334;SDS011;3200;48.204;11.576;2024-02-04T03:56:05;5.03;;;3.67;;
6334;SDS011;3200;48.204;11.576;2024-02-04T03:58:32;5.45;;;4.53;;
6334;SDS011;3200;48.204;11.576;2024-02-04T04:00:58;4.82;;;4.07;;
6334;SDS011;3200;48.204;11.576;2024-02-04T04:03:24;4.75;;;3.25;;
6334;SDS011;3200;48.204;11.576;2024-02-04T04:05:52;6.70;;;4.28;;
6334;SDS011;3200;48.204;11.576;2024-02-04T04:08:18;3.63;;;3.05;;
6334;SDS011;3200;48.204;11.576;2024-02-04T04:10:45;4.27;;;3.50;;
6334;SDS011;3200;48.204;11.576;2024-02-04T04:13:11;3.75;;;3.15;;
6334;SDS011;3200;48.204;11.576;2024-02-04T04:15:37;4.22;;;3.20;;
6334;SDS011;3200;48.204;11.576;2024-02-04T04:18:04;6.40;;;3.63;;
6334;SDS011;3200;48.204;11.576;2024-02-04T04:20:30;3.95;;;3.10;;
6334;SDS011;3200;48.204;11.576;2024-02-04T04:22:56;4.90;;;3.80;;
6334;SDS011;3200;48.204;11.576;2024-02-04T04:25:22;4.27;;;3.40;;
6334;SDS011;3200;48.204;11.576;2024-02-04T04:27:47;4.57;;;3.30;;
6334;SDS011;3200;48.204;11.576;2024-02-04T04:30:13;4.40;;;3.20;;
6334;SDS011;3200;48.204;11.576;2024-02-04T04:32:39;5.20;;;3.47;;
6334;SDS011;3200;48.204;11.576;2024-02-04T04:35:05;3.40;;;2.70;;
6334;SDS011;3200;48.204;11.576;2024-02-04T04:37:31;2.88;;;2.22;;
6334;SDS011;3200;48.204;11.576;2024-02-04T04:39:56;4.43;;;2.93;;
6334;SDS011;3200;48.204;11.576;2024-02-04T04:42:23;3.00;;;2.30;;
6334;SDS011;3200;48.204;11.576;2024-02-04T04:44:49;3.60;;;2.20;;
6334;SDS011;3200;48.204;11.576;2024-02-04T04:47:15;2.50;;;2.07;;
6334;SDS011;3200;48.204;11.576;2024-02-04T04:49:40;3.20;;;2.63;;
6334;SDS011;3200;48.204;11.576;2024-02-04T04:52:06;5.65;;;2.30;;
6334;SDS011;3200;48.204;11.576;2024-02-04T04:54:32;3.30;;;2.60;;
6334;SDS011;3200;48.204;11.576;2024-02-04T04:56:58;4.20;;;2.30;;
6334;SDS011;3200;48.204;11.576;2024-02-04T04:59:24;3.77;;;2.73;;
6334;SDS011;3200;48.204;11.576;2024-02-04T05:01:50;4.20;;;2.93;;
6334;SDS011;3200;48.204;11.576;2024-02-04T05:04:16;4.03;;;2.72;;
6334;SDS011;3200;48.204;11.576;2024-02-04T05:06:43;2.92;;;2.30;;
6334;SDS011;3200;48.204;11.576;2024-02-04T05:09:09;4.67;;;2.50;;
6334;SDS011;3200;48.204;11.576;2024-02-04T05:11:35;3.83;;;2.23;;
6334;SDS011;3200;48.204;11.576;2024-02-04T05:14:01;3.77;;;2.50;;
6334;SDS011;3200;48.204;11.576;2024-02-04T05:16:27;5.93;;;3.40;;
6334;SDS011;3200;48.204;11.576;2024-02-04T05:18:52;3.07;;;2.73;;
6334;SDS011;3200;48.204;11.576;2024-02-04T05:21:18;2.80;;;2.43;;
6334;SDS011;3200;48.204;11.576;2024-02-04T05:23:44;3.70;;;2.80;;
6334;SDS011;3200;48.204;11.576;2024-02-04T05:26:10;10.30;;;7.10;;
6334;SDS011;3200;48.204;11.576;2024-02-04T05:28:35;31.20;;;15.50;;
6334;SDS011;3200;48.204;11.576;2024-02-04T05:31:01;6.47;;;3.63;;
6334;SDS011;3200;48.204;11.576;2024-02-04T05:33:27;5.65;;;3.15;;
6334;SDS011;3200;48.204;11.576;2024-02-04T05:35:53;6.13;;;3.07;;
6334;SDS011;3200;48.204;11.576;2024-02-04T05:38:20;4.93;;;2.80;;
6334;SDS011;3200;48.204;11.576;2024-02-04T05:40:47;4.13;;;3.33;;
6334;SDS011;3200;48.204;11.576;2024-02-04T05:43:12;6.17;;;3.77;;
6334;SDS011;3200;48.204;11.576;2024-02-04T05:45:38;5.27;;;2.97;;
6334;SDS011;3200;48.204;11.576;2024-02-04T05:48:06;3.95;;;3.28;;
6334;SDS011;3200;48.204;11.576;2024-02-04T05:50:33;5.00;;;3.50;;
6334;SDS011;3200;48.204;11.576;2024-02-04T05:52:59;7.37;;;3.40;;
6334;SDS011;3200;48.204;11.576;2024-02-04T05:55:24;4.80;;;3.77;;
6334;SDS011;3200;48.204;11.576;2024-02-04T05:57:50;5.97;;;3.17;;
6334;SDS011;3200;48.204;11.576;2024-02-04T06:00:16;5.53;;;3.10;;
6334;SDS011;3200;48.204;11.576;2024-02-04T06:02:42;5.25;;;3.15;;
6334;SDS011;3200;48.204;11.576;2024-02-04T06:05:12;5.18;;;3.60;;
6334;SDS011;3200;48.204;11.576;2024-02-04T06:07:38;5.75;;;3.17;;
6334;SDS011;3200;48.204;11.576;2024-02-04T06:10:05;4.88;;;3.33;;
6334;SDS011;3200;48.204;11.576;2024-02-04T06:12:34;4.72;;;3.53;;
6334;SDS011;3200;48.204;11.576;2024-02-04T06:15:00;4.20;;;3.07;;
6334;SDS011;3200;48.204;11.576;2024-02-04T06:17:26;8.57;;;3.63;;
6334;SDS011;3200;48.204;11.576;2024-02-04T06:19:52;3.53;;;3.23;;
6334;SDS011;3200;48.204;11.576;2024-02-04T06:22:17;5.90;;;3.97;;
6334;SDS011;3200;48.204;11.576;2024-02-04T06:24:43;4.73;;;3.13;;
6334;SDS011;3200;48.204;11.576;2024-02-04T06:27:10;5.47;;;3.43;;
6334;SDS011;3200;48.204;11.576;2024-02-04T06:29:36;3.72;;;2.65;;
6334;SDS011;3200;48.204;11.576;2024-02-04T06:32:04;5.65;;;3.50;;
6334;SDS011;3200;48.204;11.576;2024-02-04T06:34:30;8.10;;;3.45;;
6334;SDS011;3200;48.204;11.576;2024-02-04T06:36:56;6.93;;;3.90;;
6334;SDS011;3200;48.204;11.576;2024-02-04T06:39:22;4.00;;;3.37;;
6334;SDS011;3200;48.204;11.576;2024-02-04T06:41:48;6.60;;;3.90;;
6334;SDS011;3200;48.204;11.576;2024-02-04T06:44:13;7.73;;;3.97;;
6334;SDS011;3200;48.204;11.576;2024-02-04T06:46:40;6.65;;;3.67;;
6334;SDS011;3200;48.204;11.576;2024-02-04T06:49:05;5.87;;;3.80;;
6334;SDS011;3200;48.204;11.576;2024-02-04T06:51:32;4.32;;;3.67;;
6334;SDS011;3200;48.204;11.576;2024-02-04T06:53:57;7.80;;;3.70;;
6334;SDS011;3200;48.204;11.576;2024-02-04T06:56:23;5.23;;;3.50;;
6334;SDS011;3200;48.204;11.576;2024-02-04T06:58:49;4.23;;;3.30;;
6334;SDS011;3200;48.204;11.576;2024-02-04T07:01:15;4.83;;;4.10;;
6334;SDS011;3200;48.204;11.576;2024-02-04T07:03:40;6.67;;;4.00;;
6334;SDS011;3200;48.204;11.576;2024-02-04T07:06:06;8.33;;;4.20;;
6334;SDS011;3200;48.204;11.576;2024-02-04T07:08:32;7.97;;;4.53;;
6334;SDS011;3200;48.204;11.576;2024-02-04T07:10:58;9.13;;;5.20;;
6334;SDS011;3200;48.204;11.576;2024-02-04T07:13:24;6.60;;;5.40;;
6334;SDS011;3200;48.204;11.576;2024-02-04T07:15:49;7.03;;;5.03;;
6334;SDS011;3200;48.204;11.576;2024-02-04T07:18:15;9.20;;;5.60;;
6334;SDS011;3200;48.204;11.576;2024-02-04T07:20:42;11.48;;;6.78;;
6334;SDS011;3200;48.204;11.576;2024-02-04T07:23:09;7.60;;;6.43;;
6334;SDS011;3200;48.204;11.576;2024-02-04T07:25:35;9.65;;;6.10;;
6334;SDS011;3200;48.204;11.576;2024-02-04T07:28:02;12.03;;;6.67;;
6334;SDS011;3200;48.204;11.576;2024-02-04T07:30:28;9.20;;;6.72;;
6334;SDS011;3200;48.204;11.576;2024-02-04T07:32:54;10.80;;;6.67;;
6334;SDS011;3200;48.204;11.576;2024-02-04T07:35:20;11.20;;;6.63;;
6334;SDS011;3200;48.204;11.576;2024-02-04T07:37:45;10.33;;;6.27;;
6334;SDS011;3200;48.204;11.576;2024-02-04T07:40:11;12.33;;;7.77;;
6334;SDS011;3200;48.204;11.576;2024-02-04T07:42:37;7.87;;;6.10;;
6334;SDS011;3200;48.204;11.576;2024-02-04T07:45:03;9.80;;;6.40;;
6334;SDS011;3200;48.204;11.576;2024-02-04T07:47:33;14.75;;;7.80;;
6334;SDS011;3200;48.204;11.576;2024-02-04T07:50:00;11.40;;;6.63;;
6334;SDS011;3200;48.204;11.576;2024-02-04T07:52:25;10.10;;;6.53;;
6334;SDS011;3200;48.204;11.576;2024-02-04T07:54:51;12.20;;;5.90;;
6334;SDS011;3200;48.204;11.576;2024-02-04T07:57:17;13.40;;;5.73;;
6334;SDS011;3200;48.204;11.576;2024-02-04T07:59:43;8.10;;;5.70;;
6334;SDS011;3200;48.204;11.576;2024-02-04T08:02:08;8.10;;;5.70;;
6334;SDS011;3200;48.204;11.576;2024-02-04T08:04:34;8.67;;;5.30;;
6334;SDS011;3200;48.204;11.576;2024-02-04T08:07:00;7.63;;;5.47;;
6334;SDS011;3200;48.204;11.576;2024-02-04T08:09:26;6.87;;;4.53;;
6334;SDS011;3200;48.204;11.576;2024-02-04T08:11:51;9.43;;;5.50;;
6334;SDS011;3200;48.204;11.576;2024-02-04T08:14:17;6.10;;;4.50;;
6334;SDS011;3200;48.204;11.576;2024-02-04T08:16:43;8.10;;;4.68;;
6334;SDS011;3200;48.204;11.576;2024-02-04T08:19:11;13.88;;;5.32;;
6334;SDS011;3200;48.204;11.576;2024-02-04T08:21:37;7.40;;;6.03;;
6334;SDS011;3200;48.204;11.576;2024-02-04T08:24:03;8.93;;;4.93;;
6334;SDS011;3200;48.204;11.576;2024-02-04T08:26:29;17.73;;;4.72;;
6334;SDS011;3200;48.204;11.576;2024-02-04T08:28:55;7.73;;;4.40;;
6334;SDS011;3200;48.204;11.576;2024-02-04T08:31:20;12.10;;;4.53;;
6334;SDS011;3200;48.204;11.576;2024-02-04T08:33:46;6.23;;;4.17;;
6334;SDS011;3200;48.204;11.576;2024-02-04T08:36:12;5.77;;;4.50;;
6334;SDS011;3200;48.204;11.576;2024-02-04T08:38:38;8.70;;;4.83;;
6334;SDS011;3200;48.204;11.576;2024-02-04T08:41:04;6.00;;;4.40;;
6334;SDS011;3200;48.204;11.576;2024-02-04T08:43:30;9.10;;;5.07;;
6334;SDS011;3200;48.204;11.576;2024-02-04T08:45:55;7.97;;;4.10;;
6334;SDS011;3200;48.204;11.576;2024-02-04T08:48:21;9.40;;;4.47;;
6334;SDS011;3200;48.204;11.576;2024-02-04T08:50:47;6.40;;;4.23;;
6334;SDS011;3200;48.204;11.576;2024-02-04T08:53:13;9.97;;;5.10;;
6334;SDS011;3200;48.204;11.576;2024-02-04T08:55:38;12.23;;;4.30;;
6334;SDS011;3200;48.204;11.576;2024-02-04T08:58:04;5.50;;;3.90;;
6334;SDS011;3200;48.204;11.576;2024-02-04T09:00:30;6.72;;;4.25;;
6334;SDS011;3200;48.204;11.576;2024-02-04T09:02:56;7.77;;;4.13;;
6334;SDS011;3200;48.204;11.576;2024-02-04T09:05:22;9.53;;;5.90;;
6334;SDS011;3200;48.204;11.576;2024-02-04T09:07:48;5.30;;;4.03;;
6334;SDS011;3200;48.204;11.576;2024-02-04T09:10:14;9.10;;;4.90;;
6334;SDS011;3200;48.204;11.576;2024-02-04T09:12:40;5.93;;;4.68;;
6334;SDS011;3200;48.204;11.576;2024-02-04T09:15:06;12.50;;;4.67;;
6334;SDS011;3200;48.204;11.576;2024-02-04T09:17:33;13.35;;;4.80;;
6334;SDS011;3200;48.204;11.576;2024-02-04T09:19:59;5.93;;;4.37;;
6334;SDS011;3200;48.204;11.576;2024-02-04T09:22:25;5.95;;;4.45;;
6334;SDS011;3200;48.204;11.576;2024-02-04T09:24:51;7.65;;;5.35;;
6334;SDS011;3200;48.204;11.576;2024-02-04T09:27:17;12.10;;;5.43;;
6334;SDS011;3200;48.204;11.576;2024-02-04T09:29:42;11.07;;;5.20;;
6334;SDS011;3200;48.204;11.576;2024-02-04T09:32:08;6.57;;;5.10;;
6334;SDS011;3200;48.204;11.576;2024-02-04T09:34:34;11.40;;;5.10;;
6334;SDS011;3200;48.204;11.576;2024-02-04T09:37:00;12.60;;;6.50;;
6334;SDS011;3200;48.204;11.576;2024-02-04T09:39:27;8.45;;;5.90;;
6334;SDS011;3200;48.204;11.576;2024-02-04T09:41:54;8.00;;;5.28;;
6334;SDS011;3200;48.204;11.576;2024-02-04T09:44:21;9.52;;;5.90;;
6334;SDS011;3200;48.204;11.576;2024-02-04T09:46:49;10.35;;;5.75;;
6334;SDS011;3200;48.204;11.576;2024-02-04T09:49:15;7.17;;;5.30;;
6334;SDS011;3200;48.204;11.576;2024-02-04T09:51:41;10.23;;;5.30;;
6334;SDS011;3200;48.204;11.576;2024-02-04T09:54:09;10.98;;;4.97;;
6334;SDS011;3200;48.204;11.576;2024-02-04T09:56:37;7.75;;;5.50;;
6334;SDS011;3200;48.204;11.576;2024-02-04T09:59:05;7.88;;;5.13;;
6334;SDS011;3200;48.204;11.576;2024-02-04T10:01:31;7.47;;;4.57;;
6334;SDS011;3200;48.204;11.576;2024-02-04T10:03:57;8.07;;;4.22;;
6334;SDS011;3200;48.204;11.576;2024-02-04T10:06:23;10.55;;;4.05;;
6334;SDS011;3200;48.204;11.576;2024-02-04T10:08:49;9.13;;;5.50;;
6334;SDS011;3200;48.204;11.576;2024-02-04T10:11:16;8.38;;;4.38;;
6334;SDS011;3200;48.204;11.576;2024-02-04T10:13:43;8.38;;;4.28;;
6334;SDS011;3200;48.204;11.576;2024-02-04T10:16:10;5.82;;;4.15;;
6334;SDS011;3200;48.204;11.576;2024-02-04T10:18:41;10.05;;;4.65;;
6334;SDS011;3200;48.204;11.576;2024-02-04T10:21:16;5.63;;;4.28;;
6334;SDS011;3200;48.204;11.576;2024-02-04T10:23:48;12.82;;;3.80;;
6334;SDS011;3200;48.204;11.576;2024-02-04T10:26:15;8.82;;;4.10;;
6334;SDS011;3200;48.204;11.576;2024-02-04T10:28:44;13.00;;;5.03;;
6334;SDS011;3200;48.204;11.576;2024-02-04T10:31:11;5.72;;;3.50;;
6334;SDS011;3200;48.204;11.576;2024-02-04T10:33:37;10.40;;;4.60;;
6334;SDS011;3200;48.204;11.576;2024-02-04T10:36:03;5.30;;;3.60;;
6334;SDS011;3200;48.204;11.576;2024-02-04T10:38:30;5.15;;;3.38;;
6334;SDS011;3200;48.204;11.576;2024-02-04T10:40:59;5.72;;;3.97;;
6334;SDS011;3200;48.204;11.576;2024-02-04T10:43:33;9.75;;;3.78;;
6334;SDS011;3200;48.204;11.576;2024-02-04T10:46:09;6.68;;;3.33;;
6334;SDS011;3200;48.204;11.576;2024-02-04T10:48:42;5.00;;;3.15;;
6334;SDS011;3200;48.204;11.576;2024-02-04T10:51:14;4.65;;;3.40;;
6334;SDS011;3200;48.204;11.576;2024-02-04T10:53:44;6.53;;;3.40;;
6334;SDS011;3200;48.204;11.576;2024-02-04T10:56:14;6.72;;;3.60;;
6334;SDS011;3200;48.204;11.576;2024-02-04T10:58:49;2.72;;;2.20;;
6334;SDS011;3200;48.204;11.576;2024-02-04T11:01:18;3.15;;;2.40;;
6334;SDS011;3200;48.204;11.576;2024-02-04T11:03:45;6.03;;;2.60;;
6334;SDS011;3200;48.204;11.576;2024-02-04T11:06:11;6.07;;;2.70;;
6334;SDS011;3200;48.204;11.576;2024-02-04T11:08:38;4.95;;;2.60;;
6334;SDS011;3200;48.204;11.576;2024-02-04T11:11:04;3.97;;;2.10;;
6334;SDS011;3200;48.204;11.576;2024-02-04T11:13:30;9.87;;;2.70;;
6334;SDS011;3200;48.204;11.576;2024-02-04T11:15:58;6.95;;;2.03;;
6334;SDS011;3200;48.204;11.576;2024-02-04T11:18:41;5.00;;;2.40;;
6334;SDS011;3200;48.204;11.576;2024-02-04T11:27:34;7.00;;;2.80;;
6334;SDS011;3200;48.204;11.576;2024-02-04T11:30:01;3.97;;;1.83;;
6334;SDS011;3200;48.204;11.576;2024-02-04T11:32:27;3.47;;;2.28;;
6334;SDS011;3200;48.204;11.576;2024-02-04T11:34:53;6.53;;;1.95;;
6334;SDS011;3200;48.204;11.576;2024-02-04T11:37:26;13.38;;;2.33;;
6334;SDS011;3200;48.204;11.576;2024-02-04T11:39:52;5.70;;;1.70;;
6334;SDS011;3200;48.204;11.576;2024-02-04T11:42:23;4.68;;;2.13;;
6334;SDS011;3200;48.204;11.576;2024-02-04T11:44:50;2.20;;;1.35;;
6334;SDS011;3200;48.204;11.576;2024-02-04T11:47:33;4.57;;;1.70;;
6334;SDS011;3200;48.204;11.576;2024-02-04T11:50:00;5.05;;;1.60;;
6334;SDS011;3200;48.204;11.576;2024-02-04T11:52:29;3.37;;;1.60;;
6334;SDS011;3200;48.204;11.576;2024-02-04T11:54:55;2.88;;;1.45;;
6334;SDS011;3200;48.204;11.576;2024-02-04T11:57:21;3.47;;;1.50;;
6334;SDS011;3200;48.204;11.576;2024-02-04T11:59:49;3.13;;;1.60;;
6334;SDS011;3200;48.204;11.576;2024-02-04T12:02:19;4.80;;;1.40;;
6334;SDS011;3200;48.204;11.576;2024-02-04T12:04:45;2.95;;;1.95;;
6334;SDS011;3200;48.204;11.576;2024-02-04T12:07:16;3.40;;;1.20;;
6334;SDS011;3200;48.204;11.576;2024-02-04T12:09:42;3.95;;;1.50;;
6334;SDS011;3200;48.204;11.576;2024-02-04T12:12:09;2.20;;;1.55;;
6334;SDS011;3200;48.204;11.576;2024-02-04T12:14:36;4.28;;;1.98;;
6334;SDS011;3200;48.204;11.576;2024-02-04T12:17:08;4.40;;;1.40;;
6334;SDS011;3200;48.204;11.576;2024-02-04T12:19:36;6.10;;;1.67;;
6334;SDS011;3200;48.204;11.576;2024-02-04T12:22:04;5.43;;;1.58;;
6334;SDS011;3200;48.204;11.576;2024-02-04T12:24:35;6.20;;;2.08;;
6334;SDS011;3200;48.204;11.576;2024-02-04T12:27:02;3.80;;;2.17;;
6334;SDS011;3200;48.204;11.576;2024-02-04T12:29:29;3.55;;;1.45;;
6334;SDS011;3200;48.204;11.576;2024-02-04T12:32:00;3.08;;;1.70;;
6334;SDS011;3200;48.204;11.576;2024-02-04T12:34:30;3.05;;;1.55;;
6334;SDS011;3200;48.204;11.576;2024-02-04T12:37:01;2.78;;;1.60;;
6334;SDS011;3200;48.204;11.576;2024-02-04T12:39:28;2.20;;;1.70;;
6334;SDS011;3200;48.204;11.576;2024-02-04T12:41:54;5.85;;;1.70;;
6334;SDS011;3200;48.204;11.576;2024-02-04T12:44:20;2.30;;;1.70;;
6334;SDS011;3200;48.204;11.576;2024-02-04T12:46:49;2.97;;;1.55;;
6334;SDS011;3200;48.204;11.576;2024-02-04T12:49:18;4.30;;;1.55;;
6334;SDS011;3200;48.204;11.576;2024-02-04T12:51:49;4.00;;;1.95;;
6334;SDS011;3200;48.204;11.576;2024-02-04T12:54:17;3.05;;;1.77;;
6334;SDS011;3200;48.204;11.576;2024-02-04T12:56:48;4.25;;;1.92;;
6334;SDS011;3200;48.204;11.576;2024-02-04T12:59:27;3.03;;;1.60;;
6334;SDS011;3200;48.204;11.576;2024-02-04T13:02:05;4.80;;;1.70;;
6334;SDS011;3200;48.204;11.576;2024-02-04T13:07:09;3.35;;;1.70;;
6334;SDS011;3200;48.204;11.576;2024-02-04T13:09:41;4.28;;;2.25;;
6334;SDS011;3200;48.204;11.576;2024-02-04T13:12:09;7.78;;;2.22;;
6334;SDS011;3200;48.204;11.576;2024-02-04T13:14:39;3.53;;;1.63;;
6334;SDS011;3200;48.204;11.576;2024-02-04T13:17:07;8.15;;;2.05;;
6334;SDS011;3200;48.204;11.576;2024-02-04T13:19:37;3.60;;;2.28;;
6334;SDS011;3200;48.204;11.576;2024-02-04T13:22:04;4.32;;;2.10;;
6334;SDS011;3200;48.204;11.576;2024-02-04T13:24:31;4.78;;;1.90;;
6334;SDS011;3200;48.204;11.576;2024-02-04T13:26:58;7.20;;;1.83;;
6334;SDS011;3200;48.204;11.576;2024-02-04T13:29:26;6.35;;;1.75;;
6334;SDS011;3200;48.204;11.576;2024-02-04T13:31:52;4.45;;;1.40;;
6334;SDS011;3200;48.204;11.576;2024-02-04T13:34:18;3.93;;;2.10;;
6334;SDS011;3200;48.204;11.576;2024-02-04T13:36:45;5.03;;;2.03;;
6334;SDS011;3200;48.204;11.576;2024-02-04T13:39:11;5.35;;;3.35;;
6334;SDS011;3200;48.204;11.576;2024-02-04T13:41:40;4.88;;;1.95;;
6334;SDS011;3200;48.204;11.576;2024-02-04T13:44:07;5.55;;;1.95;;
6334;SDS011;3200;48.204;11.576;2024-02-04T13:46:32;4.23;;;1.90;;
6334;SDS011;3200;48.204;11.576;2024-02-04T13:48:58;4.30;;;1.95;;
6334;SDS011;3200;48.204;11.576;2024-02-04T13:51:24;2.50;;;1.20;;
6334;SDS011;3200;48.204;11.576;2024-02-04T13:53:50;8.37;;;5.10;;
6334;SDS011;3200;48.204;11.576;2024-02-04T13:56:16;2.10;;;1.47;;
6334;SDS011;3200;48.204;11.576;2024-02-04T13:58:44;2.40;;;1.30;;
6334;SDS011;3200;48.204;11.576;2024-02-04T14:01:10;3.70;;;1.45;;
6334;SDS011;3200;48.204;11.576;2024-02-04T14:03:37;4.60;;;1.58;;
6334;SDS011;3200;48.204;11.576;2024-02-04T14:06:03;2.30;;;1.20;;
6334;SDS011;3200;48.204;11.576;2024-02-04T14:08:29;5.30;;;1.57;;
6334;SDS011;3200;48.204;11.576;2024-02-04T14:10:55;2.53;;;1.30;;
6334;SDS011;3200;48.204;11.576;2024-02-04T14:13:21;3.35;;;1.63;;
6334;SDS011;3200;48.204;11.576;2024-02-04T14:15:47;2.80;;;1.20;;
6334;SDS011;3200;48.204;11.576;2024-02-04T14:18:13;2.57;;;1.73;;
6334;SDS011;3200;48.204;11.576;2024-02-04T14:20:39;4.20;;;1.67;;
6334;SDS011;3200;48.204;11.576;2024-02-04T14:23:05;4.93;;;1.50;;
6334;SDS011;3200;48.204;11.576;2024-02-04T14:25:30;6.13;;;1.80;;
6334;SDS011;3200;48.204;11.576;2024-02-04T14:27:56;2.93;;;1.40;;
6334;SDS011;3200;48.204;11.576;2024-02-04T14:30:22;2.03;;;1.43;;
6334;SDS011;3200;48.204;11.576;2024-02-04T14:32:48;3.90;;;1.37;;
6334;SDS011;3200;48.204;11.576;2024-02-04T14:35:13;6.27;;;1.73;;
6334;SDS011;3200;48.204;11.576;2024-02-04T14:37:40;2.10;;;1.77;;
6334;SDS011;3200;48.204;11.576;2024-02-04T14:40:07;2.20;;;1.50;;
6334;SDS011;3200;48.204;11.576;2024-02-04T14:42:35;3.58;;;2.00;;
6334;SDS011;3200;48.204;11.576;2024-02-04T14:45:01;4.07;;;2.00;;
6334;SDS011;3200;48.204;11.576;2024-02-04T14:47:27;7.10;;;2.00;;
6334;SDS011;3200;48.204;11.576;2024-02-04T14:49:53;5.65;;;1.90;;
6334;SDS011;3200;48.204;11.576;2024-02-04T14:52:20;3.75;;;1.45;;
6334;SDS011;3200;48.204;11.576;2024-02-04T14:54:46;4.80;;;1.75;;
6334;SDS011;3200;48.204;11.576;2024-02-04T14:57:12;3.97;;;1.90;;
6334;SDS011;3200;48.204;11.576;2024-02-04T14:59:41;4.67;;;2.10;;
6334;SDS011;3200;48.204;11.576;2024-02-04T15:02:09;5.40;;;1.70;;
6334;SDS011;3200;48.204;11.576;2024-02-04T15:04:35;4.10;;;1.80;;
6334;SDS011;3200;48.204;11.576;2024-02-04T15:07:01;3.30;;;1.60;;
6334;SDS011;3200;48.204;11.576;2024-02-04T15:09:30;4.88;;;1.50;;
6334;SDS011;3200;48.204;11.576;2024-02-04T15:11:57;5.07;;;1.88;;